TimeEST,TemperatureF,Dew PointF,Humidity,Sea Level PressureIn,VisibilityMPH,Wind Direction,Wind SpeedMPH,Gust SpeedMPH,PrecipitationIn,Events,Conditions,WindDirDegrees,DateUTC
12:14 AM,52.7,47.3,82,29.99,10.0,South,13.8,-,N/A,,Scattered Clouds,170,2012-11-11 05:14:00
12:35 AM,53.6,47.5,80,29.98,10.0,South,12.7,-,N/A,,Scattered Clouds,180,2012-11-11 05:35:00
12:55 AM,53.6,47.5,80,29.98,10.0,South,13.8,-,N/A,,Scattered Clouds,170,2012-11-11 05:55:00
1:14 AM,53.6,47.3,79,29.99,10.0,South,11.5,-,N/A,,Scattered Clouds,180,2012-11-11 06:14:00
1:35 AM,53.6,47.5,80,29.99,10.0,South,10.4,-,N/A,,Clear,190,2012-11-11 06:35:00
1:55 AM,54.1,47.5,78,29.99,10.0,South,10.4,-,N/A,,Clear,190,2012-11-11 06:55:00
2:14 AM,54.1,47.7,79,29.99,10.0,South,12.7,-,N/A,,Clear,190,2012-11-11 07:14:00
2:35 AM,54.7,47.7,77,30.00,10.0,SSW,10.4,-,N/A,,Clear,200,2012-11-11 07:35:00
2:55 AM,54.9,47.5,76,30.00,10.0,SSW,10.4,-,N/A,,Clear,200,2012-11-11 07:55:00
3:15 AM,54.3,47.3,77,30.00,10.0,SSW,9.2,-,N/A,,Clear,200,2012-11-11 08:15:00
3:35 AM,54.7,47.3,76,30.00,10.0,SSW,8.1,-,N/A,,Clear,210,2012-11-11 08:35:00
3:55 AM,55.2,47.1,74,30.01,10.0,SSW,8.1,-,N/A,,Clear,210,2012-11-11 08:55:00
4:15 AM,56.5,47.1,71,30.01,10.0,SSW,8.1,-,N/A,,Clear,210,2012-11-11 09:15:00
4:34 AM,56.3,46.8,70,30.02,10.0,SSW,9.2,-,N/A,,Clear,210,2012-11-11 09:34:00
4:55 AM,57.0,46.0,67,30.03,10.0,SSW,13.8,17.3,N/A,,Clear,210,2012-11-11 09:55:00
5:15 AM,57.6,45.9,65,30.04,10.0,SSW,10.4,-,N/A,,Clear,210,2012-11-11 10:15:00
5:35 AM,58.3,45.7,63,30.04,10.0,SSW,11.5,19.6,N/A,,Clear,210,2012-11-11 10:35:00
5:55 AM,58.5,45.5,62,30.04,10.0,SSW,13.8,-,N/A,,Clear,200,2012-11-11 10:55:00
6:35 AM,59.0,45.3,60,30.05,10.0,SSW,16.1,19.6,N/A,,Clear,200,2012-11-11 11:35:00
6:55 AM,59.2,44.8,59,30.05,10.0,SSW,13.8,21.9,N/A,,Clear,210,2012-11-11 11:55:00
7:15 AM,58.6,44.6,60,30.06,10.0,SSW,13.8,-,N/A,,Clear,210,2012-11-11 12:15:00
7:55 AM,57.2,44.8,63,30.06,10.0,SSW,12.7,-,N/A,,Clear,200,2012-11-11 12:55:00
8:35 AM,57.6,45.9,65,30.06,10.0,South,13.8,-,N/A,,Clear,180,2012-11-11 13:35:00
8:55 AM,57.6,46.0,65,30.07,10.0,South,13.8,18.4,N/A,,Clear,190,2012-11-11 13:55:00
9:15 AM,57.2,45.9,66,30.07,10.0,South,12.7,-,N/A,,Clear,180,2012-11-11 14:15:00
9:55 AM,58.8,46.9,65,30.05,10.0,South,12.7,-,N/A,,Clear,180,2012-11-11 14:55:00
10:15 AM,59.9,47.3,63,30.05,10.0,South,13.8,19.6,N/A,,Clear,180,2012-11-11 15:15:00
10:35 AM,60.6,47.5,62,30.05,10.0,South,13.8,-,N/A,,Clear,180,2012-11-11 15:35:00
10:55 AM,62.8,48.0,59,30.05,10.0,South,19.6,25.3,N/A,,Clear,180,2012-11-11 15:55:00
11:14 AM,63.9,47.8,56,30.04,10.0,South,19.6,24.2,N/A,,Clear,190,2012-11-11 16:14:00
11:35 AM,63.1,47.5,57,30.04,10.0,South,20.7,-,N/A,,Clear,180,2012-11-11 16:35:00
11:55 AM,63.9,47.7,56,30.03,10.0,South,19.6,27.6,N/A,,Clear,180,2012-11-11 16:55:00
12:15 PM,62.4,48.0,59,30.01,10.0,South,17.3,26.5,N/A,,Clear,180,2012-11-11 17:15:00
12:35 PM,63.5,48.2,57,30.00,10.0,South,20.7,29.9,N/A,,Clear,180,2012-11-11 17:35:00
1:15 PM,65.5,48.4,54,30.00,10.0,South,20.7,28.8,N/A,,Clear,190,2012-11-11 18:15:00
1:35 PM,66.0,48.6,53,29.99,10.0,South,25.3,33.4,N/A,,Clear,190,2012-11-11 18:35:00
1:55 PM,66.2,48.9,54,29.98,10.0,South,19.6,32.2,N/A,,Clear,180,2012-11-11 18:55:00
2:15 PM,63.9,48.2,57,29.97,10.0,South,18.4,27.6,N/A,,Clear,180,2012-11-11 19:15:00
2:35 PM,64.2,48.0,56,29.97,10.0,South,18.4,28.8,N/A,,Clear,180,2012-11-11 19:35:00
2:55 PM,64.4,48.0,55,29.97,10.0,South,19.6,26.5,N/A,,Clear,180,2012-11-11 19:55:00
3:15 PM,64.4,48.4,56,29.97,10.0,South,21.9,25.3,N/A,,Clear,170,2012-11-11 20:15:00
3:35 PM,65.3,48.7,55,29.96,10.0,South,21.9,25.3,N/A,,Clear,180,2012-11-11 20:35:00
3:55 PM,65.8,49.1,55,29.96,10.0,South,26.5,35.7,N/A,,Clear,190,2012-11-11 20:55:00
4:15 PM,65.3,48.9,55,29.96,10.0,South,17.3,27.6,N/A,,Clear,170,2012-11-11 21:15:00
4:35 PM,62.8,48.4,59,29.96,10.0,South,19.6,25.3,N/A,,Clear,170,2012-11-11 21:35:00
4:56 PM,61.9,48.2,61,29.96,10.0,South,20.7,26.5,N/A,,Clear,170,2012-11-11 21:56:00
5:15 PM,61.0,47.8,62,29.96,10.0,SSE,18.4,24.2,N/A,,Clear,160,2012-11-11 22:15:00
5:35 PM,59.9,47.1,63,29.96,10.0,SSE,19.6,25.3,N/A,,Clear,160,2012-11-11 22:35:00
5:56 PM,59.0,45.0,60,29.96,10.0,South,23.0,28.8,N/A,,Clear,170,2012-11-11 22:56:00
6:15 PM,59.2,43.0,55,29.97,10.0,South,23.0,26.5,N/A,,Clear,170,2012-11-11 23:15:00
6:35 PM,58.6,41.9,54,29.96,10.0,South,19.6,25.3,N/A,,Clear,170,2012-11-11 23:35:00
6:55 PM,58.3,40.8,52,29.94,10.0,SSE,20.7,27.6,N/A,,Clear,160,2012-11-11 23:55:00
7:15 PM,57.6,40.3,53,29.94,10.0,SSE,23.0,28.8,N/A,,Clear,160,2012-11-12 00:15:00
7:35 PM,57.2,40.1,53,29.94,10.0,South,20.7,28.8,N/A,,Clear,170,2012-11-12 00:35:00
7:55 PM,57.7,39.7,51,29.95,10.0,South,24.2,28.8,N/A,,Clear,180,2012-11-12 00:55:00
8:15 PM,57.7,40.1,52,29.94,10.0,South,24.2,31.1,N/A,,Clear,180,2012-11-12 01:15:00
8:35 PM,58.1,39.6,50,29.94,10.0,South,23.0,31.1,N/A,,Clear,180,2012-11-12 01:35:00
8:55 PM,58.1,38.5,48,29.95,10.0,South,24.2,28.8,N/A,,Clear,180,2012-11-12 01:55:00
9:15 PM,58.5,38.3,47,29.94,10.0,South,21.9,29.9,N/A,,Clear,170,2012-11-12 02:15:00
9:36 PM,58.5,38.3,47,29.93,10.0,South,20.7,35.7,N/A,,Clear,180,2012-11-12 02:36:00
9:55 PM,58.5,37.9,46,29.94,10.0,South,19.6,28.8,N/A,,Clear,190,2012-11-12 02:55:00
10:15 PM,59.0,37.4,45,29.94,10.0,South,19.6,-,N/A,,Mostly Cloudy,180,2012-11-12 03:15:00
10:36 PM,58.6,37.6,46,29.94,10.0,South,16.1,24.2,N/A,,Mostly Cloudy,180,2012-11-12 03:36:00
10:55 PM,59.0,37.6,45,29.93,10.0,South,17.3,23.0,N/A,,Overcast,180,2012-11-12 03:55:00
11:14 PM,59.5,37.8,44,29.92,10.0,South,17.3,-,N/A,,Overcast,190,2012-11-12 04:14:00
11:35 PM,60.4,37.6,43,29.92,10.0,South,21.9,28.8,N/A,,Overcast,190,2012-11-12 04:35:00
11:55 PM,59.9,38.1,44,29.92,10.0,South,20.7,26.5,N/A,,Scattered Clouds,190,2012-11-12 04:55:00